createdAt,value
2022-10-06T00:01:27.471Z,73.62
2022-10-06T00:04:00.013Z,73.51
2022-10-06T00:06:32.198Z,73.62
2022-10-06T00:09:04.551Z,73.76
2022-10-06T00:11:37.840Z,73.71
2022-10-06T00:14:10.142Z,73.77
2022-10-06T00:16:42.469Z,73.81
2022-10-06T00:19:14.671Z,73.75
2022-10-06T00:21:47.029Z,73.74
2022-10-06T00:24:19.847Z,73.81
2022-10-06T00:26:52.125Z,73.90
2022-10-06T00:29:24.441Z,73.99
2022-10-06T00:31:57.295Z,73.92
2022-10-06T00:34:29.579Z,73.85
2022-10-06T00:37:01.852Z,73.95
2022-10-06T00:39:34.174Z,73.96
2022-10-06T00:42:06.566Z,73.95
2022-10-06T00:44:38.843Z,74.05
2022-10-06T00:47:11.172Z,73.87
2022-10-06T00:49:45.022Z,74.02
2022-10-06T00:52:20.234Z,73.94
2022-10-06T00:54:52.669Z,74.20
2022-10-06T00:57:25.196Z,74.13
2022-10-06T00:59:57.522Z,74.10
2022-10-06T01:02:36.063Z,74.23
2022-10-06T01:05:11.376Z,73.96
2022-10-06T01:07:43.902Z,74.10
2022-10-06T01:10:16.225Z,74.25
2022-10-06T01:12:48.580Z,74.13
2022-10-06T01:15:22.695Z,74.19
2022-10-06T01:18:01.212Z,74.23
2022-10-06T01:20:34.690Z,74.15
2022-10-06T01:23:10.369Z,74.27
2022-10-06T01:25:42.873Z,74.45
2022-10-06T01:28:16.300Z,74.37
2022-10-06T01:30:53.054Z,74.37
2022-10-06T01:33:27.373Z,74.36
2022-10-06T01:36:00.021Z,74.18
2022-10-06T01:38:32.750Z,74.30
2022-10-06T01:41:08.560Z,74.41
2022-10-06T01:43:41.105Z,74.41
2022-10-06T01:46:13.510Z,74.36
2022-10-06T01:48:46.593Z,74.29
2022-10-06T01:51:20.441Z,74.33
2022-10-06T01:53:52.692Z,74.55
2022-10-06T01:56:26.635Z,74.51
2022-10-06T01:58:58.874Z,74.73
2022-10-06T02:01:31.721Z,74.62
2022-10-06T02:04:04.132Z,74.58
2022-10-06T02:06:36.510Z,74.79
2022-10-06T02:09:09.828Z,74.64
2022-10-06T02:11:43.885Z,74.93
2022-10-06T02:14:18.197Z,74.87
2022-10-06T02:16:50.801Z,74.86
2022-10-06T02:19:23.316Z,74.93
2022-10-06T02:21:56.044Z,74.82
2022-10-06T02:24:28.391Z,75.04
2022-10-06T02:27:00.709Z,74.92
2022-10-06T02:29:33.081Z,74.90
2022-10-06T02:32:05.839Z,75.02
2022-10-06T02:34:38.125Z,74.95
2022-10-06T02:37:10.788Z,75.16
2022-10-06T02:39:43.252Z,75.06
2022-10-06T02:42:15.504Z,75.24
2022-10-06T02:44:48.244Z,75.22
2022-10-06T02:47:22.425Z,75.25
2022-10-06T02:49:54.756Z,75.22
2022-10-06T02:52:31.982Z,75.26
2022-10-06T02:55:05.075Z,75.49
2022-10-06T02:57:37.401Z,75.42
2022-10-06T03:00:12.640Z,75.48
2022-10-06T03:02:45.034Z,75.64
2022-10-06T03:05:17.798Z,75.50
2022-10-06T03:07:50.136Z,75.52
2022-10-06T03:10:23.258Z,75.70
2022-10-06T03:12:55.780Z,75.64
2022-10-06T03:15:28.887Z,75.64
2022-10-06T03:18:01.766Z,75.73
2022-10-06T03:20:34.075Z,75.69
2022-10-06T03:23:10.262Z,75.81
2022-10-06T03:25:45.516Z,75.79
2022-10-06T03:28:18.697Z,75.87
2022-10-06T03:30:51.087Z,75.79
2022-10-06T03:33:23.921Z,75.81
2022-10-06T03:36:03.796Z,75.90
2022-10-06T03:38:37.720Z,75.94
2022-10-06T03:41:12.089Z,76.01
2022-10-06T03:43:46.468Z,75.88
2022-10-06T03:46:20.925Z,75.85
2022-10-06T03:48:54.117Z,76.12
2022-10-06T03:51:31.404Z,76.11
2022-10-06T03:54:04.745Z,76.10
2022-10-06T03:56:39.947Z,76.11
2022-10-06T03:59:14.150Z,76.16
2022-10-06T04:01:49.401Z,76.27
2022-10-06T04:04:34.086Z,76.24
2022-10-06T04:07:10.362Z,76.42
2022-10-06T04:09:42.718Z,76.51
2022-10-06T04:12:16.250Z,76.41
2022-10-06T04:14:48.852Z,76.51
2022-10-06T04:17:21.132Z,76.50
2022-10-06T04:19:53.328Z,76.70
2022-10-06T04:22:25.663Z,76.65
2022-10-06T04:24:58.041Z,76.59
2022-10-06T04:27:30.492Z,76.67
2022-10-06T04:30:12.726Z,76.65
2022-10-06T04:32:45.930Z,76.82
2022-10-06T04:35:19.398Z,76.85
2022-10-06T04:37:52.038Z,76.80
2022-10-06T04:40:24.516Z,76.82
2022-10-06T04:42:57.571Z,76.82
2022-10-06T04:45:30.078Z,76.93
2022-10-06T04:48:02.530Z,77.06
2022-10-06T04:50:34.975Z,77.20
2022-10-06T04:53:13.813Z,77.10
2022-10-06T04:55:46.244Z,77.31
2022-10-06T04:58:18.585Z,77.43
2022-10-06T05:00:53.055Z,77.37
2022-10-06T05:03:25.721Z,77.70
2022-10-06T05:06:06.018Z,77.53
2022-10-06T05:08:38.636Z,77.52
2022-10-06T05:11:15.194Z,77.64
2022-10-06T05:13:52.976Z,77.78
2022-10-06T05:16:29.069Z,78.01
2022-10-06T05:19:08.013Z,78.04
2022-10-06T05:21:45.115Z,78.04
2022-10-06T05:24:22.778Z,78.17
2022-10-06T05:26:59.519Z,78.18
2022-10-06T05:29:35.385Z,78.30
2022-10-06T05:32:09.322Z,78.20
2022-10-06T05:34:42.488Z,78.29
2022-10-06T05:37:14.803Z,78.49
2022-10-06T05:39:47.823Z,78.63
2022-10-06T05:42:20.427Z,78.66
2022-10-06T05:44:53.017Z,78.73
2022-10-06T05:47:25.350Z,78.84
2022-10-06T05:49:57.616Z,78.85
2022-10-06T05:52:30.010Z,78.95
2022-10-06T05:55:02.987Z,79.02
2022-10-06T05:57:35.645Z,79.01
2022-10-06T06:00:11.197Z,79.07
2022-10-06T06:02:45.362Z,79.26
2022-10-06T06:05:19.272Z,79.26
2022-10-06T06:07:51.701Z,79.34
2022-10-06T06:10:24.157Z,79.30
2022-10-06T06:12:56.613Z,79.29
2022-10-06T06:16:01.999Z,79.38
2022-10-06T06:18:35.688Z,79.52
2022-10-06T06:21:10.712Z,79.67
2022-10-06T06:23:46.569Z,79.75
2022-10-06T06:26:23.620Z,79.81
2022-10-06T06:29:04.143Z,79.80
2022-10-06T06:31:39.863Z,79.98
2022-10-06T06:34:13.161Z,79.87
2022-10-06T06:36:52.205Z,80.10
2022-10-06T06:39:25.572Z,80.32
2022-10-06T06:41:58.369Z,80.64
2022-10-06T06:44:47.976Z,80.55
2022-10-06T06:47:40.244Z,80.80
2022-10-06T06:50:15.261Z,80.81
2022-10-06T06:52:47.566Z,81.08
2022-10-06T06:55:20.572Z,81.20
2022-10-06T06:57:54.925Z,81.19
2022-10-06T07:00:27.261Z,81.20
2022-10-06T07:03:00.959Z,81.23
2022-10-06T07:05:35.813Z,81.45
2022-10-06T07:08:09.952Z,81.43
2022-10-06T07:10:45.235Z,81.48
2022-10-06T07:13:18.668Z,81.51
2022-10-06T07:16:10.545Z,81.60
2022-10-06T07:19:00.326Z,81.79
2022-10-06T07:21:50.934Z,81.80
2022-10-06T07:24:42.163Z,81.76
2022-10-06T07:27:14.942Z,81.84
2022-10-06T07:29:47.338Z,81.93
2022-10-06T07:32:21.399Z,82.04
2022-10-06T07:34:55.431Z,82.03
2022-10-06T07:37:29.307Z,81.93
2022-10-06T07:40:02.779Z,81.42
2022-10-06T07:42:48.571Z,81.67
2022-10-06T07:45:42.555Z,81.49
2022-10-06T07:48:19.717Z,81.38
2022-10-06T07:50:56.725Z,81.27
2022-10-06T07:53:37.574Z,81.23
2022-10-06T07:56:20.685Z,81.16
2022-10-06T07:58:56.174Z,81.01
2022-10-06T08:01:30.155Z,80.98
2022-10-06T08:04:06.998Z,80.89
2022-10-06T08:06:39.662Z,80.67
2022-10-06T08:09:11.952Z,80.59
2022-10-06T08:11:45.224Z,80.26
2022-10-06T08:14:17.509Z,79.49
2022-10-06T08:16:49.869Z,79.30
2022-10-06T08:19:22.326Z,79.32
2022-10-06T08:21:54.573Z,79.13
2022-10-06T08:24:33.821Z,78.86
2022-10-06T08:27:14.813Z,78.87
2022-10-06T08:29:47.078Z,79.02
2022-10-06T08:32:20.161Z,78.96
2022-10-06T08:34:52.800Z,78.79
2022-10-06T08:37:26.946Z,78.95
2022-10-06T08:39:59.633Z,78.70
2022-10-06T08:42:39.848Z,78.67
2022-10-06T08:45:19.305Z,78.62
2022-10-06T08:47:56.531Z,78.46
2022-10-06T08:50:33.748Z,78.55
2022-10-06T08:53:15.480Z,78.60
2022-10-06T08:55:54.134Z,78.54
2022-10-06T08:58:38.527Z,78.58
2022-10-06T09:01:19.903Z,78.61
2022-10-06T09:03:54.345Z,78.69
2022-10-06T09:06:41.804Z,78.41
2022-10-06T09:09:29.389Z,78.16
2022-10-06T09:12:09.917Z,77.98
2022-10-06T09:14:45.610Z,77.98
2022-10-06T09:17:23.595Z,78.22
2022-10-06T09:20:01.615Z,78.31
2022-10-06T09:22:35.048Z,78.03
2022-10-06T09:25:20.252Z,77.52
2022-10-06T09:27:57.143Z,77.33
2022-10-06T09:30:29.850Z,77.38
2022-10-06T09:33:04.598Z,77.51
2022-10-06T09:35:36.455Z,77.51
2022-10-06T09:38:09.436Z,77.47
2022-10-06T09:40:49.639Z,77.02
2022-10-06T09:43:26.884Z,77.24
2022-10-06T09:46:23.049Z,77.02
2022-10-06T09:49:18.880Z,76.76
2022-10-06T09:52:18.522Z,76.66
2022-10-06T09:55:10.185Z,76.62
2022-10-06T09:57:51.458Z,76.36
2022-10-06T10:00:31.921Z,75.57
2022-10-06T10:03:07.304Z,75.80
2022-10-06T10:05:47.046Z,75.90
2022-10-06T10:08:24.416Z,76.16
2022-10-06T10:11:37.392Z,75.96
2022-10-06T10:14:19.752Z,75.83
2022-10-06T10:16:53.494Z,75.61
2022-10-06T10:19:32.970Z,75.45
2022-10-06T10:22:06.134Z,75.37
2022-10-06T10:24:55.235Z,75.17
2022-10-06T10:27:36.949Z,74.42
2022-10-06T10:30:14.850Z,74.33
2022-10-06T10:33:00.472Z,74.12
2022-10-06T10:35:38.874Z,73.42
2022-10-06T10:38:18.741Z,72.81
2022-10-06T10:40:56.580Z,72.51
2022-10-06T10:43:35.252Z,72.10
2022-10-06T10:46:16.996Z,71.62
2022-10-06T10:48:55.524Z,71.12
2022-10-06T10:51:33.461Z,71.10
2022-10-06T10:54:10.764Z,71.17
2022-10-06T11:33:15.189Z,67.69
2022-10-06T11:35:49.722Z,67.35
2022-10-06T11:38:24.940Z,66.96
2022-10-06T11:41:02.664Z,66.55
2022-10-06T11:43:43.508Z,65.98
2022-10-06T11:46:32.071Z,66.28
2022-10-06T11:49:49.529Z,66.42
2022-10-06T11:52:53.689Z,66.41
2022-10-06T11:55:29.150Z,66.28
2022-10-06T11:58:41.401Z,65.52
2022-10-06T12:01:08.942Z,65.75
2022-10-06T12:04:14.075Z,65.42
2022-10-06T12:07:00.990Z,65.13
2022-10-06T12:09:53.973Z,65.00
2022-10-06T12:13:07.111Z,64.57
2022-10-06T12:19:24.059Z,64.18
2022-10-06T12:22:08.702Z,63.92
2022-10-06T12:24:46.169Z,63.74
2022-10-06T12:27:32.083Z,62.86
2022-10-06T12:30:19.047Z,62.92
2022-10-06T12:32:56.328Z,62.75
2022-10-06T12:35:37.188Z,62.34
2022-10-06T12:38:45.614Z,62.09
2022-10-06T12:41:57.703Z,62.19
2022-10-06T12:44:35.452Z,61.92
2022-10-06T12:47:14.825Z,61.95
2022-10-06T12:49:58.666Z,61.45
2022-10-06T12:52:45.131Z,61.31
2022-10-06T12:55:34.760Z,61.02
2022-10-06T12:58:08.059Z,61.26
2022-10-06T13:00:43.024Z,61.23
2022-10-06T13:03:24.399Z,60.50
2022-10-06T13:06:00.709Z,60.50
2022-10-06T13:08:35.003Z,60.45
2022-10-06T13:11:22.267Z,60.18
2022-10-06T13:13:56.356Z,60.10
2022-10-06T13:16:32.114Z,60.15
2022-10-06T13:19:04.561Z,60.21
2022-10-06T13:21:36.931Z,60.04
2022-10-06T13:24:15.026Z,59.60
2022-10-06T13:26:48.625Z,59.09
2022-10-06T13:29:24.120Z,58.76
2022-10-06T13:31:57.954Z,58.59
2022-10-06T13:34:34.971Z,58.14
2022-10-06T13:37:07.506Z,58.06
2022-10-06T13:39:39.794Z,57.89
2022-10-06T13:42:17.902Z,57.74
2022-10-06T13:44:59.576Z,57.16
2022-10-06T13:47:33.178Z,57.35
2022-10-06T13:50:08.514Z,57.12
2022-10-06T13:52:42.499Z,57.01
2022-10-06T13:55:22.565Z,57.05
2022-10-06T13:58:10.109Z,56.96
2022-10-06T14:00:55.981Z,56.78
2022-10-06T14:06:19.028Z,56.81
2022-10-06T14:08:55.208Z,56.78
2022-10-06T14:11:30.437Z,56.27
2022-10-06T14:14:05.877Z,56.16
2022-10-06T14:16:38.213Z,55.96
2022-10-06T14:19:38.910Z,56.11
2022-10-06T14:22:32.508Z,56.08
2022-10-06T14:25:11.776Z,55.89
2022-10-06T14:27:44.026Z,55.97
2022-10-06T14:30:17.064Z,55.71
2022-10-06T14:32:49.825Z,55.64
2022-10-06T14:35:22.292Z,55.45
2022-10-06T14:37:54.474Z,55.36
2022-10-06T14:40:26.849Z,55.40
2022-10-06T14:42:59.092Z,55.26
2022-10-06T14:45:36.195Z,55.29
2022-10-06T14:48:08.672Z,55.22
2022-10-06T14:50:41.496Z,55.21
2022-10-06T14:53:17.622Z,55.06
2022-10-06T14:55:49.891Z,55.17
2022-10-06T14:58:22.129Z,55.20
2022-10-06T15:00:54.412Z,55.05
2022-10-06T15:03:26.863Z,54.90
2022-10-06T15:06:22.604Z,55.07
2022-10-06T15:08:57.475Z,54.89
2022-10-06T15:11:31.204Z,55.04
2022-10-06T15:14:04.236Z,54.82
2022-10-06T15:16:40.731Z,54.86
2022-10-06T15:19:14.004Z,54.98
2022-10-06T15:21:46.601Z,54.91
2022-10-06T15:24:21.376Z,54.94
2022-10-06T15:27:11.259Z,54.96
2022-10-06T15:29:43.574Z,54.98
2022-10-06T15:32:15.958Z,54.83
2022-10-06T15:34:48.181Z,54.88
2022-10-06T15:37:21.130Z,55.00
2022-10-06T15:39:53.392Z,54.89
2022-10-06T15:42:25.704Z,54.88
2022-10-06T15:44:57.957Z,54.85
2022-10-06T15:47:30.223Z,54.86
2022-10-06T15:50:03.650Z,54.89
2022-10-06T15:52:36.212Z,54.84
2022-10-06T15:55:10.649Z,54.96
2022-10-06T15:57:42.946Z,55.04
2022-10-06T16:00:17.641Z,54.96
2022-10-06T16:02:48.480Z,55.03
2022-10-06T16:05:47.408Z,55.11
2022-10-06T16:08:19.712Z,55.03
2022-10-06T16:10:53.548Z,55.12
2022-10-06T16:13:25.949Z,55.13
2022-10-06T16:15:58.533Z,55.20
2022-10-06T16:18:32.640Z,55.26
2022-10-06T16:21:04.992Z,55.33
2022-10-06T16:23:37.243Z,55.37
2022-10-06T16:26:09.565Z,55.26
2022-10-06T16:28:41.896Z,55.38
2022-10-06T16:31:14.182Z,55.33
2022-10-06T16:33:47.036Z,55.43
2022-10-06T16:36:19.916Z,55.52
2022-10-06T16:38:55.872Z,55.53
2022-10-06T16:41:28.255Z,55.62
2022-10-06T16:44:01.166Z,55.70
2022-10-06T16:46:34.205Z,55.67
2022-10-06T16:49:08.723Z,55.82
2022-10-06T16:51:43.003Z,55.78
2022-10-06T16:54:17.544Z,55.97
2022-10-06T16:56:52.785Z,55.91
2022-10-06T16:59:27.070Z,55.97
2022-10-06T17:01:59.281Z,55.98
2022-10-06T17:04:31.574Z,56.06
2022-10-06T17:07:04.376Z,56.13
2022-10-06T17:09:36.736Z,56.19
2022-10-06T17:12:09.027Z,56.21
2022-10-06T17:14:41.293Z,56.26
2022-10-06T17:17:13.585Z,56.30
2022-10-06T17:19:45.828Z,56.36
2022-10-06T17:22:18.072Z,56.41
2022-10-06T17:24:50.306Z,56.42
2022-10-06T17:27:23.841Z,56.52
2022-10-06T17:29:56.101Z,56.54
2022-10-06T17:32:28.421Z,56.63
2022-10-06T17:35:00.723Z,56.57
2022-10-06T17:37:35.130Z,56.60
2022-10-06T17:40:09.204Z,56.65
2022-10-06T17:42:42.107Z,56.72
2022-10-06T17:45:20.377Z,56.72
2022-10-06T17:47:53.819Z,56.83
2022-10-06T17:50:42.290Z,56.79
2022-10-06T17:53:14.800Z,56.83
2022-10-06T17:55:47.916Z,56.89
2022-10-06T17:58:29.741Z,56.90
2022-10-06T18:01:10.299Z,56.95
2022-10-06T18:03:46.756Z,56.95
2022-10-06T18:06:41.912Z,57.11
2022-10-06T18:09:15.235Z,57.06
2022-10-06T18:11:55.558Z,57.16
2022-10-06T18:14:33.642Z,57.13
2022-10-06T18:17:06.744Z,57.16
2022-10-06T18:19:40.435Z,57.20
2022-10-06T18:37:41.569Z,57.96
2022-10-06T18:40:14.986Z,57.96
2022-10-06T18:42:47.274Z,58.02
2022-10-06T18:45:39.563Z,58.05
2022-10-06T18:48:30.292Z,58.02
2022-10-06T18:51:06.431Z,58.24
2022-10-06T18:53:39.191Z,58.18
2022-10-06T18:56:11.218Z,58.29
2022-10-06T18:58:44.488Z,58.21
2022-10-06T19:01:16.951Z,58.34
2022-10-06T19:03:50.690Z,58.24
2022-10-06T19:06:22.991Z,58.27
2022-10-06T19:09:00.940Z,58.44
2022-10-06T19:11:46.097Z,58.45
2022-10-06T19:14:20.159Z,58.41
2022-10-06T19:16:59.032Z,58.57
2022-10-06T19:19:34.296Z,58.79
2022-10-06T19:22:07.470Z,58.64
2022-10-06T19:24:42.217Z,58.67
2022-10-06T19:27:15.267Z,58.97
2022-10-06T19:29:53.164Z,59.04
2022-10-06T19:32:27.219Z,59.06
2022-10-06T19:34:59.500Z,59.09
2022-10-06T19:37:33.519Z,59.14
2022-10-06T19:40:08.327Z,59.17
2022-10-06T19:42:51.291Z,59.37
2022-10-06T19:45:23.566Z,59.31
2022-10-06T19:47:57.502Z,59.33
2022-10-06T19:50:30.375Z,59.22
2022-10-06T19:53:04.775Z,59.36
2022-10-06T19:55:36.906Z,59.46
2022-10-06T19:58:09.071Z,59.45
2022-10-06T20:00:42.305Z,59.38
2022-10-06T20:03:14.335Z,59.68
2022-10-06T20:05:46.481Z,59.55
2022-10-06T20:08:18.597Z,59.51
2022-10-06T20:10:50.760Z,59.66
2022-10-06T20:13:22.911Z,59.76
2022-10-06T20:15:55.013Z,59.92
2022-10-06T20:18:27.208Z,59.93
2022-10-06T20:21:02.421Z,59.86
2022-10-06T20:23:34.468Z,59.94
2022-10-06T20:26:14.968Z,59.75
2022-10-06T20:28:47.568Z,59.85
2022-10-06T20:31:22.665Z,60.12
2022-10-06T20:33:58.146Z,60.02
2022-10-06T20:36:32.121Z,60.19
2022-10-06T20:39:31.135Z,60.16
2022-10-06T20:42:03.618Z,60.20
2022-10-06T20:44:36.054Z,60.07
2022-10-06T20:47:08.969Z,60.14
2022-10-06T20:49:42.618Z,60.24
2022-10-06T20:52:15.234Z,60.31
2022-10-06T20:54:47.280Z,60.29
2022-10-06T20:57:19.380Z,60.31
2022-10-06T20:59:52.649Z,60.43
2022-10-06T21:02:24.798Z,60.32
2022-10-06T21:04:57.590Z,60.37
2022-10-06T21:07:30.215Z,60.58
2022-10-06T21:10:02.390Z,60.68
2022-10-06T21:12:34.642Z,60.54
2022-10-06T21:15:07.648Z,60.66
2022-10-06T21:17:42.508Z,60.75
2022-10-06T21:20:15.053Z,60.78
2022-10-06T21:22:47.343Z,60.90
2022-10-06T21:25:19.719Z,60.66
2022-10-06T21:27:51.908Z,60.81
2022-10-06T21:30:24.543Z,60.80
2022-10-06T21:32:57.797Z,60.80
2022-10-06T21:35:30.067Z,60.94
2022-10-06T21:38:02.217Z,61.00
2022-10-06T21:40:38.532Z,60.94
2022-10-06T21:43:10.912Z,61.17
2022-10-06T21:45:47.434Z,61.14
2022-10-06T21:48:20.056Z,61.31
2022-10-06T21:50:58.509Z,61.22
2022-10-06T21:53:32.967Z,61.15
2022-10-06T21:56:05.330Z,61.33
2022-10-06T21:58:37.635Z,61.29
2022-10-06T22:01:14.032Z,61.34
2022-10-06T22:03:46.535Z,61.28
2022-10-06T22:06:20.111Z,61.14
2022-10-06T22:08:52.835Z,61.36
2022-10-06T22:11:27.373Z,61.56
2022-10-06T22:14:01.524Z,61.52
2022-10-06T22:16:35.579Z,61.68
2022-10-06T22:19:09.816Z,61.79
2022-10-06T22:21:43.844Z,61.65
2022-10-06T22:24:17.968Z,61.66
2022-10-06T22:26:50.888Z,61.77
2022-10-06T22:29:23.713Z,61.72
2022-10-06T22:31:56.181Z,61.91
2022-10-06T22:34:29.849Z,61.83
2022-10-06T22:37:01.999Z,61.74
2022-10-06T22:39:34.560Z,61.82
2022-10-06T22:42:06.992Z,61.95
2022-10-06T22:44:39.074Z,62.09
2022-10-06T22:47:11.188Z,61.99
2022-10-06T22:49:43.325Z,61.92
2022-10-06T22:52:15.421Z,62.20
2022-10-06T22:54:47.586Z,62.16
2022-10-06T22:57:19.748Z,62.38
2022-10-06T22:59:51.957Z,62.06
2022-10-06T23:02:24.091Z,62.15
2022-10-06T23:04:56.276Z,62.10
2022-10-06T23:07:28.433Z,62.19
2022-10-06T23:10:00.568Z,62.39
2022-10-06T23:12:32.663Z,62.46
2022-10-06T23:15:05.363Z,62.35
2022-10-06T23:17:38.025Z,62.44
2022-10-06T23:20:13.073Z,62.58
2022-10-06T23:22:45.228Z,62.41
2022-10-06T23:25:17.523Z,62.58
2022-10-06T23:27:49.670Z,62.43
2022-10-06T23:30:21.860Z,62.63
2022-10-06T23:32:53.937Z,62.51
2022-10-06T23:35:26.131Z,62.70
2022-10-06T23:37:58.243Z,62.60
2022-10-06T23:40:30.539Z,62.81
2022-10-06T23:43:02.794Z,62.92
2022-10-06T23:45:35.030Z,62.66
2022-10-06T23:48:07.147Z,62.68
2022-10-06T23:50:39.291Z,62.79
2022-10-06T23:53:11.841Z,62.95
2022-10-06T23:55:44.001Z,62.79
2022-10-06T23:58:16.623Z,62.74
